Terminal Aerodrome Forecast
Issued by NWS

Home | Current Version | Previous Version | Text Only | Print | Product List | Glossary On
Versions: 1 2 3 4 5 6 7 8 9 10 11 12
000
FTUS43 KSGF 010500
TAFBBG
TAF
KBBG 010520Z 0106/0206 VRB04KT P6SM SCT100 BKN250
     FM010900 VRB04KT P6SM BKN100 OVC250 WS020/25035KT
     FM011400 20008KT P6SM SCT050 BKN100 OVC250
     FM012000 18010KT P6SM BKN250 PROB30 0120/0202 6SM -TSRA
      BKN040CB
     FM020200 18008KT P6SM VCTS SCT040CB OVC100=

USA.gov is the U.S. government's official web portal to all federal, state and local government web resources and services.